createdAt,value
2022-09-24T00:03:10.968Z,12.60
2022-09-24T00:08:12.842Z,12.60
2022-09-24T00:13:18.842Z,12.40
2022-09-24T00:18:22.102Z,12.30
2022-09-24T00:23:24.459Z,12.40
2022-09-24T00:28:28.453Z,12.50
2022-09-24T00:33:30.703Z,12.40
2022-09-24T00:38:32.909Z,12.60
2022-09-24T00:43:39.269Z,12.60
2022-09-24T00:48:42.201Z,12.80
2022-09-24T00:53:47.354Z,12.90
2022-09-24T00:58:54.291Z,12.90
2022-09-24T01:03:57.936Z,12.90
2022-09-24T01:09:01.151Z,13.10
2022-09-24T01:14:33.203Z,13.20
2022-09-24T01:20:04.758Z,13.10
2022-09-24T01:25:13.449Z,13.00
2022-09-24T01:30:17.202Z,12.90
2022-09-24T01:35:22.814Z,12.80
2022-09-24T01:40:28.299Z,12.70
2022-09-24T01:45:33.045Z,12.80
2022-09-24T01:50:43.870Z,12.60
2022-09-24T01:55:50.748Z,13.00
2022-09-24T02:01:00.247Z,12.90
2022-09-24T02:06:08.773Z,12.90
2022-09-24T02:11:14.738Z,13.00
2022-09-24T02:16:23.195Z,13.30
2022-09-24T02:21:27.388Z,13.40
2022-09-24T02:26:30.030Z,13.50
2022-09-24T02:31:36.427Z,13.50
2022-09-24T02:36:41.108Z,13.50
2022-09-24T02:41:43.343Z,13.40
2022-09-24T02:46:47.144Z,13.30
2022-09-24T02:51:48.987Z,13.30
2022-09-24T02:56:51.268Z,13.40
2022-09-24T03:01:54.791Z,13.40
2022-09-24T03:06:56.783Z,13.40
2022-09-24T03:12:01.092Z,13.30
2022-09-24T03:17:04.597Z,13.30
2022-09-24T03:22:06.837Z,13.20
2022-09-24T03:27:08.488Z,13.10
2022-09-24T03:32:11.651Z,13.10
2022-09-24T03:37:13.648Z,13.00
2022-09-24T03:42:15.685Z,13.10
2022-09-24T03:47:19.228Z,13.00
2022-09-24T03:52:21.474Z,13.00
2022-09-24T03:57:23.637Z,13.00
2022-09-24T04:02:27.128Z,13.00
2022-09-24T04:07:28.865Z,12.90
2022-09-24T04:12:31.404Z,12.90
2022-09-24T04:17:34.536Z,12.80
2022-09-24T04:22:36.257Z,12.80
2022-09-24T04:27:39.517Z,12.80
2022-09-24T04:32:42.998Z,12.60
2022-09-24T04:37:45.109Z,12.60
2022-09-24T04:42:47.560Z,12.50
2022-09-24T04:47:52.731Z,12.40
2022-09-24T04:52:54.930Z,12.40
2022-09-24T04:57:58.020Z,12.40
2022-09-24T05:03:03.871Z,12.50
2022-09-24T05:08:06.426Z,12.40
2022-09-24T05:13:08.533Z,12.30
2022-09-24T05:18:12.249Z,12.20
2022-09-24T05:23:14.291Z,12.20
2022-09-24T05:28:16.226Z,12.30
2022-09-24T05:33:19.596Z,12.30
2022-09-24T05:38:21.762Z,12.30
2022-09-24T05:43:24.012Z,12.30
2022-09-24T05:48:27.627Z,12.30
2022-09-24T05:53:29.861Z,12.30
2022-09-24T05:58:31.855Z,12.40
2022-09-24T06:03:35.865Z,12.50
2022-09-24T06:08:38.170Z,12.50
2022-09-24T06:13:40.026Z,12.60
2022-09-24T06:18:45.168Z,12.60
2022-09-24T06:23:47.208Z,12.50
2022-09-24T06:28:49.189Z,12.60
2022-09-24T06:33:52.422Z,12.70
2022-09-24T06:38:54.570Z,12.80
2022-09-24T06:43:57.563Z,12.90
2022-09-24T06:49:01.320Z,12.90
2022-09-24T06:54:03.295Z,13.00
2022-09-24T06:59:06.802Z,13.10
2022-09-24T07:04:10.056Z,13.10
2022-09-24T07:09:12.182Z,13.20
2022-09-24T07:14:14.040Z,13.10
2022-09-24T07:19:17.295Z,13.10
2022-09-24T07:24:19.512Z,13.10
2022-09-24T07:29:21.710Z,13.00
2022-09-24T07:34:25.036Z,13.00
2022-09-24T07:39:27.690Z,13.00
2022-09-24T07:44:30.642Z,13.10
2022-09-24T07:49:34.353Z,13.00
2022-09-24T07:54:36.457Z,13.00
2022-09-24T07:59:38.521Z,13.00
2022-09-24T08:04:42.268Z,13.00
2022-09-24T08:09:44.436Z,13.00
2022-09-24T08:14:46.463Z,13.00
2022-09-24T08:19:52.082Z,13.30
2022-09-24T08:24:55.047Z,13.40
2022-09-24T08:29:58.020Z,13.80
2022-09-24T08:35:01.110Z,13.90
2022-09-24T08:40:03.743Z,14.10
2022-09-24T08:45:25.197Z,14.50
2022-09-24T08:50:17.614Z,14.80
2022-09-24T08:55:05.845Z,14.60
2022-09-24T08:59:54.091Z,14.50
2022-09-24T09:04:46.985Z,14.80
2022-09-24T09:09:43.307Z,15.10
2022-09-24T09:14:41.940Z,15.90
2022-09-24T09:19:29.019Z,15.70
2022-09-24T09:24:19.488Z,15.80
2022-09-24T09:29:07.246Z,15.60
2022-09-24T09:34:14.255Z,15.80
2022-09-24T09:39:06.221Z,16.40
2022-09-24T09:43:49.714Z,16.90
2022-09-24T09:48:45.333Z,17.20
2022-09-24T09:53:31.653Z,16.70
2022-09-24T09:58:23.153Z,16.90
2022-09-24T10:03:06.825Z,17.10
2022-09-24T10:07:53.285Z,17.30
2022-09-24T10:12:36.644Z,17.80
2022-09-24T10:17:21.248Z,18.10
2022-09-24T10:22:12.135Z,18.50
2022-09-24T10:26:57.277Z,18.90
2022-09-24T10:31:42.568Z,19.30
2022-09-24T10:36:28.077Z,20.00
2022-09-24T10:41:24.196Z,20.00
2022-09-24T10:46:21.937Z,19.90
2022-09-24T10:51:14.339Z,19.70
2022-09-24T10:56:06.558Z,19.50
2022-09-24T11:01:01.820Z,19.30
2022-09-24T11:05:54.149Z,19.30
2022-09-24T11:10:58.588Z,19.50
2022-09-24T11:16:09.917Z,18.70
2022-09-24T11:21:05.844Z,19.10
2022-09-24T11:25:57.173Z,19.30
2022-09-24T11:30:49.386Z,19.30
2022-09-24T11:36:05.724Z,19.50
2022-09-24T11:41:05.282Z,19.20
2022-09-24T11:46:00.574Z,18.80
2022-09-24T11:50:54.552Z,19.30
2022-09-24T11:55:45.752Z,19.70
2022-09-24T12:00:36.581Z,19.70
2022-09-24T12:05:29.636Z,19.70
2022-09-24T12:10:27.124Z,19.80
2022-09-24T12:15:19.757Z,19.80
2022-09-24T12:20:08.391Z,20.30
2022-09-24T12:24:54.514Z,20.10
2022-09-24T12:30:05.398Z,20.80
2022-09-24T12:34:57.460Z,21.10
2022-09-24T12:39:47.470Z,21.00
2022-09-24T12:44:38.075Z,21.00
2022-09-24T12:49:31.762Z,20.80
2022-09-24T12:54:28.729Z,20.30
2022-09-24T12:59:26.396Z,19.40
2022-09-24T13:04:30.545Z,19.10
2022-09-24T13:09:38.494Z,18.70
2022-09-24T13:14:23.507Z,18.70
2022-09-24T13:19:27.809Z,18.70
2022-09-24T13:24:13.035Z,18.00
2022-09-24T13:29:00.830Z,17.40
2022-09-24T13:33:47.618Z,17.50
2022-09-24T13:38:34.667Z,17.80
2022-09-24T13:43:23.558Z,17.90
2022-09-24T13:48:19.559Z,18.00
2022-09-24T13:53:07.708Z,17.90
2022-09-24T13:57:51.252Z,18.00
2022-09-24T14:02:39.211Z,18.00
2022-09-24T14:07:24.437Z,17.80
2022-09-24T14:12:16.335Z,17.70
2022-09-24T14:17:09.698Z,17.60
2022-09-24T14:21:55.829Z,17.50
2022-09-24T14:26:45.417Z,17.10
2022-09-24T14:31:29.526Z,17.10
2022-09-24T14:36:15.574Z,16.80
2022-09-24T14:41:02.324Z,16.90
2022-09-24T14:45:49.146Z,17.10
2022-09-24T14:50:40.479Z,17.20
2022-09-24T14:55:36.797Z,17.20
2022-09-24T15:00:25.587Z,17.40
2022-09-24T15:05:11.056Z,17.20
2022-09-24T15:09:56.758Z,17.10
2022-09-24T15:14:40.260Z,17.20
2022-09-24T15:19:27.111Z,17.30
2022-09-24T15:24:13.434Z,17.50
2022-09-24T15:28:58.160Z,17.60
2022-09-24T15:33:41.573Z,17.50
2022-09-24T15:38:25.006Z,17.40
2022-09-24T15:43:21.124Z,17.20
2022-09-24T15:48:04.539Z,17.00
2022-09-24T15:52:51.692Z,16.90
2022-09-24T15:57:35.185Z,16.70
2022-09-24T16:02:22.991Z,16.60
2022-09-24T16:07:06.575Z,16.40
2022-09-24T16:11:50.039Z,16.20
2022-09-24T16:16:33.480Z,16.00
2022-09-24T16:21:18.361Z,16.10
2022-09-24T16:26:02.414Z,16.10
2022-09-24T16:30:45.932Z,16.10
2022-09-24T16:35:30.095Z,16.00
2022-09-24T16:40:15.640Z,15.90
2022-09-24T16:44:59.104Z,15.80
2022-09-24T16:49:42.494Z,15.60
2022-09-24T16:54:26.574Z,15.50
2022-09-24T16:59:12.666Z,15.20
2022-09-24T17:03:58.030Z,15.10
2022-09-24T17:08:59.209Z,15.00
2022-09-24T17:13:43.325Z,14.90
2022-09-24T17:18:28.357Z,14.90
2022-09-24T17:23:11.801Z,14.80
2022-09-24T17:27:55.389Z,14.80
2022-09-24T17:32:38.806Z,14.70
2022-09-24T17:37:23.631Z,14.60
2022-09-24T17:42:08.083Z,14.50
2022-09-24T17:46:51.486Z,14.60
2022-09-24T17:51:36.962Z,14.50
2022-09-24T17:56:26.343Z,14.40
2022-09-24T18:01:12.511Z,14.40
2022-09-24T18:06:01.429Z,14.40
2022-09-24T18:10:45.007Z,14.30
2022-09-24T18:15:30.743Z,14.30
2022-09-24T18:20:14.323Z,14.20
2022-09-24T18:25:01.949Z,14.20
2022-09-24T18:29:46.588Z,14.20
2022-09-24T18:34:31.616Z,14.10
2022-09-24T18:39:23.715Z,14.10
2022-09-24T18:44:07.823Z,14.10
2022-09-24T18:48:52.999Z,14.50
2022-09-24T18:53:37.865Z,14.60
2022-09-24T18:58:21.301Z,14.60
2022-09-24T19:03:04.833Z,14.60
2022-09-24T19:07:48.361Z,14.70
2022-09-24T19:12:33.803Z,14.70
2022-09-24T19:17:17.284Z,14.50
2022-09-24T19:22:00.684Z,14.20
2022-09-24T19:26:44.618Z,14.00
2022-09-24T19:31:33.516Z,13.90
2022-09-24T19:36:17.689Z,13.80
2022-09-24T19:41:02.952Z,13.70
2022-09-24T19:45:54.074Z,13.70
2022-09-24T19:50:40.815Z,13.70
2022-09-24T19:55:28.379Z,13.70
2022-09-24T20:00:13.313Z,13.60
2022-09-24T20:05:26.053Z,13.60
2022-09-24T20:10:12.831Z,13.60
2022-09-24T20:14:56.245Z,13.60
2022-09-24T20:19:40.262Z,13.60
2022-09-24T20:24:23.827Z,13.60
2022-09-24T20:29:10.501Z,13.60
2022-09-24T20:33:54.004Z,13.60
2022-09-24T20:38:38.141Z,13.50
2022-09-24T20:43:22.126Z,13.60
2022-09-24T20:48:07.118Z,13.60
2022-09-24T20:52:50.568Z,13.60
2022-09-24T20:57:33.984Z,13.50
2022-09-24T21:02:17.494Z,13.50
2022-09-24T21:07:02.751Z,13.50
2022-09-24T21:11:46.201Z,13.50
2022-09-24T21:16:32.144Z,13.50
2022-09-24T21:21:17.284Z,13.50
2022-09-24T21:26:14.685Z,13.50
2022-09-24T21:31:03.523Z,13.50
2022-09-24T21:35:47.052Z,13.40
2022-09-24T21:40:30.616Z,13.40
2022-09-24T21:45:15.662Z,13.30
2022-09-24T21:49:59.260Z,13.30
2022-09-24T21:54:42.849Z,13.20
2022-09-24T21:59:43.619Z,13.20
2022-09-24T22:04:29.008Z,13.20
2022-09-24T22:09:13.263Z,13.10
2022-09-24T22:14:01.348Z,13.10
2022-09-24T22:18:44.980Z,13.00
2022-09-24T22:23:29.729Z,13.00
2022-09-24T22:28:17.460Z,13.00
2022-09-24T22:33:03.931Z,13.00
2022-09-24T22:37:47.471Z,13.00
2022-09-24T22:42:32.245Z,13.00
2022-09-24T22:47:15.701Z,13.00
2022-09-24T22:51:59.132Z,12.90
2022-09-24T22:56:42.531Z,12.80
2022-09-24T23:01:42.430Z,12.70
2022-09-24T23:06:35.408Z,12.80
2022-09-24T23:11:48.231Z,12.70
2022-09-24T23:16:42.954Z,12.70
2022-09-24T23:22:38.278Z,12.60
2022-09-24T23:34:05.316Z,12.70
2022-09-24T23:39:27.471Z,12.70
2022-09-24T23:44:48.875Z,12.60
